Time;durP1;ratioP1;P1;durP2;ratioP2;P2;SDS_P1;SDS_P2;PMS_P1;PMS_P2;Temp;Humidity;BMP_temperature;BMP_pressure;BME280_temperature;BME280_humidity;BME280_pressure;Samples;Min_cycle;Max_cycle;Signal;HPM_P1;HPM_P2
2023/12/03 00:01:13;;;;;;;4.28;2.20;;;;;;;-4.18;100.00;98343.06;2612847;28;20154;-88
2023/12/03 00:02:48;;;;;;;4.15;1.90;;;;;;;-3.83;100.00;98342.34;2612838;28;20069;-88
2023/12/03 00:04:03;;;;;;;7.10;2.35;;;;;;;-3.84;100.00;98341.44;2611780;28;20116;-88
2023/12/03 00:05:19;;;;;;;7.38;2.42;;;;;;;-4.11;100.00;98332.16;2611795;28;20056;-88
2023/12/03 00:06:35;;;;;;;4.97;2.17;;;;;;;-4.15;100.00;98334.59;2612861;28;20037;-88
2023/12/03 00:07:51;;;;;;;4.20;2.63;;;;;;;-4.32;100.00;98337.53;2612557;28;20041;-88
2023/12/03 00:09:06;;;;;;;4.63;2.28;;;;;;;-4.09;100.00;98339.00;2612076;28;20041;-88
2023/12/03 00:10:22;;;;;;;4.80;2.55;;;;;;;-4.09;100.00;98344.13;2612397;28;20407;-88
2023/12/03 00:11:38;;;;;;;3.13;1.90;;;;;;;-4.19;100.00;98340.44;2612841;28;20431;-88
2023/12/03 00:12:54;;;;;;;5.10;2.25;;;;;;;-4.44;100.00;98345.72;2612045;28;20040;-88
2023/12/03 00:14:09;;;;;;;4.18;2.58;;;;;;;-4.33;100.00;98347.69;2612414;28;20052;-87
2023/12/03 00:15:25;;;;;;;6.38;3.70;;;;;;;-4.40;100.00;98344.97;2612057;28;20037;-87
2023/12/03 00:16:41;;;;;;;4.15;2.97;;;;;;;-4.32;100.00;98352.00;2612474;28;20045;-88
2023/12/03 00:17:56;;;;;;;5.35;2.58;;;;;;;-4.31;100.00;98353.75;2612722;28;20518;-87
2023/12/03 00:19:12;;;;;;;7.68;3.35;;;;;;;-4.25;100.00;98343.69;2612918;28;20072;-88
2023/12/03 00:20:28;;;;;;;7.63;3.38;;;;;;;-4.39;100.00;98348.41;2612552;28;20045;-87
2023/12/03 00:21:43;;;;;;;2.83;1.90;;;;;;;-4.72;100.00;98351.63;2612865;28;20069;-88
2023/12/03 00:22:59;;;;;;;6.57;3.10;;;;;;;-4.63;100.00;98346.81;2612062;28;20071;-88
2023/12/03 00:24:15;;;;;;;7.18;3.03;;;;;;;-4.79;100.00;98353.13;2612329;28;20447;-88
2023/12/03 00:25:30;;;;;;;1.60;1.30;;;;;;;-4.87;100.00;98352.03;2612019;28;20119;-87
2023/12/03 00:26:46;;;;;;;5.72;2.78;;;;;;;-4.55;100.00;98354.72;2612313;28;20048;-88
2023/12/03 00:28:01;;;;;;;4.32;2.47;;;;;;;-4.65;100.00;98352.69;2612752;28;20060;-88
2023/12/03 00:29:17;;;;;;;5.13;2.53;;;;;;;-4.82;100.00;98355.59;2612110;28;20036;-88
2023/12/03 00:30:33;;;;;;;6.28;2.05;;;;;;;-4.80;100.00;98355.66;2612581;28;20041;-88
2023/12/03 00:31:49;;;;;;;5.15;3.08;;;;;;;-4.63;100.00;98361.28;2612722;28;20099;-88
2023/12/03 00:33:04;;;;;;;6.50;3.10;;;;;;;-4.75;100.00;98356.66;2612032;28;20063;-88
2023/12/03 00:34:20;;;;;;;6.80;3.67;;;;;;;-4.52;100.00;98365.03;2612079;28;20052;-89
2023/12/03 00:35:36;;;;;;;4.47;2.55;;;;;;;-4.48;100.00;98360.88;2609293;28;20045;-88
2023/12/03 00:36:51;;;;;;;7.00;3.47;;;;;;;-4.43;100.00;98369.56;2599048;28;20041;-87
2023/12/03 00:38:07;;;;;;;5.60;2.97;;;;;;;-4.75;100.00;98375.41;2611103;28;20037;-88
2023/12/03 00:39:23;;;;;;;4.60;2.47;;;;;;;-4.75;100.00;98372.88;2612660;28;20056;-88
2023/12/03 00:40:39;;;;;;;6.13;3.00;;;;;;;-4.64;100.00;98370.63;2632916;28;20110;-89
2023/12/03 00:41:55;;;;;;;4.80;2.40;;;;;;;-4.68;100.00;98374.78;2618834;28;20040;-87
2023/12/03 00:43:10;;;;;;;7.13;3.30;;;;;;;-4.62;100.00;98374.09;2611667;28;20570;-88
2023/12/03 00:44:25;;;;;;;7.22;3.38;;;;;;;-4.78;100.00;98377.00;2612245;28;20041;-88
2023/12/03 00:45:41;;;;;;;9.02;3.75;;;;;;;-4.62;100.00;98379.22;2613084;28;20047;-88
2023/12/03 00:46:57;;;;;;;6.65;2.72;;;;;;;-4.81;100.00;98382.88;2612214;28;20041;-89
2023/12/03 00:48:12;;;;;;;5.93;2.35;;;;;;;-4.90;100.00;98375.78;2612141;28;20052;-88
2023/12/03 00:49:28;;;;;;;8.35;3.05;;;;;;;-4.77;100.00;98383.84;2612404;28;20170;-88
2023/12/03 00:50:44;;;;;;;4.15;2.08;;;;;;;-4.80;100.00;98374.38;2612927;28;20041;-89
2023/12/03 00:51:59;;;;;;;4.03;2.40;;;;;;;-4.85;100.00;98379.34;2612948;28;20052;-88
2023/12/03 00:53:15;;;;;;;4.32;2.05;;;;;;;-4.69;100.00;98378.16;2612859;28;20091;-88
2023/12/03 00:54:30;;;;;;;8.57;3.78;;;;;;;-4.38;100.00;98378.25;2612081;28;20045;-89
2023/12/03 00:55:46;;;;;;;6.82;3.20;;;;;;;-4.36;100.00;98381.72;2612326;28;20068;-88
2023/12/03 00:57:02;;;;;;;4.53;2.65;;;;;;;-4.55;100.00;98386.25;2613016;28;20049;-88
2023/12/03 00:58:17;;;;;;;9.32;3.55;;;;;;;-4.63;100.00;98387.69;2612882;28;20467;-88
2023/12/03 00:59:33;;;;;;;8.63;3.80;;;;;;;-4.65;100.00;98391.00;2612818;28;20045;-88
2023/12/03 01:00:49;;;;;;;4.75;2.70;;;;;;;-4.64;100.00;98397.88;2612697;28;20049;-88
2023/12/03 01:02:04;;;;;;;6.88;3.17;;;;;;;-4.58;100.00;98401.47;2612824;28;20045;-88
2023/12/03 01:03:20;;;;;;;7.53;3.90;;;;;;;-4.47;100.00;98401.84;2613426;28;20484;-89
2023/12/03 01:04:36;;;;;;;6.53;3.58;;;;;;;-4.41;100.00;98399.47;2622518;28;20048;-88
2023/12/03 01:05:51;;;;;;;7.90;3.95;;;;;;;-4.30;100.00;98394.66;2618494;28;20045;-88
2023/12/03 01:07:07;;;;;;;8.77;3.90;;;;;;;-4.29;100.00;98408.34;2611833;28;20053;-88
2023/12/03 01:08:23;;;;;;;8.13;3.78;;;;;;;-4.38;100.00;98402.94;2616432;28;20048;-88
2023/12/03 01:09:38;;;;;;;7.78;3.55;;;;;;;-4.29;100.00;98411.75;2618429;28;20045;-88
2023/12/03 01:10:54;;;;;;;7.82;4.07;;;;;;;-4.23;100.00;98412.78;2612908;28;20051;-88
2023/12/03 01:12:10;;;;;;;7.72;3.85;;;;;;;-4.18;100.00;98414.66;2611902;28;20045;-88
2023/12/03 01:13:25;;;;;;;8.45;4.13;;;;;;;-4.19;100.00;98420.59;2612633;28;20041;-88
2023/12/03 01:14:41;;;;;;;8.27;4.25;;;;;;;-4.11;100.00;98421.66;2612653;28;20060;-88
2023/12/03 01:15:56;;;;;;;7.85;3.58;;;;;;;-4.13;100.00;98430.97;2612823;28;20426;-88
2023/12/03 01:17:12;;;;;;;9.50;4.78;;;;;;;-4.02;100.00;98422.78;2612749;28;20041;-88
2023/12/03 01:18:27;;;;;;;10.68;3.78;;;;;;;-3.98;100.00;98429.72;2612873;28;20122;-88
2023/12/03 01:19:43;;;;;;;6.93;3.85;;;;;;;-3.89;100.00;98429.09;2612763;28;20048;-88
2023/12/03 01:20:59;;;;;;;7.70;3.58;;;;;;;-3.83;100.00;98432.72;2612227;28;20066;-88
2023/12/03 01:22:14;;;;;;;8.25;4.40;;;;;;;-3.86;100.00;98434.31;2612855;28;20099;-88
2023/12/03 01:23:30;;;;;;;8.00;4.20;;;;;;;-3.95;100.00;98442.59;2612719;28;20041;-87
2023/12/03 01:24:45;;;;;;;10.27;4.75;;;;;;;-3.78;100.00;98442.22;2612736;28;20048;-87
2023/12/03 01:26:01;;;;;;;11.57;5.20;;;;;;;-3.71;100.00;98446.69;2612541;28;20075;-88
2023/12/03 01:27:16;;;;;;;11.25;4.70;;;;;;;-3.62;100.00;98440.97;2612688;28;20102;-88
2023/12/03 01:28:32;;;;;;;10.10;4.45;;;;;;;-3.66;100.00;98445.13;2612522;28;20049;-88
2023/12/03 01:29:48;;;;;;;9.38;4.82;;;;;;;-3.58;100.00;98453.03;2612649;28;20049;-86
2023/12/03 01:31:03;;;;;;;8.60;4.03;;;;;;;-3.61;100.00;98446.16;2612800;28;20110;-87
2023/12/03 01:32:19;;;;;;;8.48;3.95;;;;;;;-3.55;100.00;98450.56;2613727;28;20128;-88
2023/12/03 01:33:35;;;;;;;7.95;4.10;;;;;;;-3.52;100.00;98444.66;2614425;28;20045;-88
2023/12/03 01:34:51;;;;;;;6.78;3.22;;;;;;;-3.72;100.00;98455.19;2615371;28;20110;-88
2023/12/03 01:36:07;;;;;;;9.30;4.03;;;;;;;-3.56;100.00;98449.69;2615913;28;20053;-88
2023/12/03 01:37:22;;;;;;;7.60;3.85;;;;;;;-3.64;100.00;98455.41;2614749;28;20443;-88
2023/12/03 01:38:38;;;;;;;8.23;4.15;;;;;;;-3.55;100.00;98455.69;2613826;28;20087;-88
2023/12/03 01:39:54;;;;;;;8.27;4.05;;;;;;;-3.49;100.00;98458.41;2613999;28;20048;-88
2023/12/03 01:41:09;;;;;;;6.80;3.13;;;;;;;-3.48;100.00;98456.72;2614663;28;20049;-88
2023/12/03 01:42:25;;;;;;;6.75;3.28;;;;;;;-3.56;100.00;98454.81;2614645;28;20049;-88
2023/12/03 01:43:48;;;;;;;8.45;3.70;;;;;;;-3.51;100.00;98456.63;2613780;28;20045;-88
2023/12/03 01:45:04;;;;;;;9.25;3.50;;;;;;;-3.55;100.00;98456.53;2613897;28;20064;-88
2023/12/03 01:46:21;;;;;;;8.70;3.80;;;;;;;-3.39;100.00;98461.25;2614490;28;20045;-88
2023/12/03 01:47:37;;;;;;;6.07;3.72;;;;;;;-3.26;100.00;98455.63;2614593;28;20048;-88
2023/12/03 01:48:53;;;;;;;8.48;3.85;;;;;;;-3.31;100.00;98455.50;2614210;28;20424;-88
2023/12/03 01:50:11;;;;;;;6.07;3.55;;;;;;;-3.18;100.00;98453.28;2614434;28;20053;-88
2023/12/03 01:51:27;;;;;;;8.02;3.90;;;;;;;-3.21;100.00;98459.19;2614379;28;20120;-89
2023/12/03 01:52:43;;;;;;;7.18;3.25;;;;;;;-3.32;100.00;98461.47;2614460;28;20048;-88
2023/12/03 01:53:59;;;;;;;6.47;3.42;;;;;;;-3.51;100.00;98464.31;2614478;28;20118;-88
2023/12/03 01:55:17;;;;;;;5.63;3.13;;;;;;;-3.72;100.00;98465.44;2614319;28;20037;-88
2023/12/03 01:56:33;;;;;;;6.80;3.42;;;;;;;-3.27;100.00;98469.28;2614370;28;20032;-88
2023/12/03 01:57:49;;;;;;;7.50;3.13;;;;;;;-3.56;100.00;98470.16;2614722;28;20056;-88
2023/12/03 01:59:04;;;;;;;3.72;2.42;;;;;;;-3.76;100.00;98466.16;2614208;28;20451;-88
2023/12/03 02:00:20;;;;;;;4.72;2.08;;;;;;;-3.81;100.00;98472.81;2614518;28;20083;-90
2023/12/03 02:01:36;;;;;;;5.82;2.80;;;;;;;-3.84;100.00;98466.78;2614391;28;20129;-90
2023/12/03 02:02:51;;;;;;;7.03;4.05;;;;;;;-3.80;100.00;98470.31;2614266;28;20045;-90
2023/12/03 02:04:07;;;;;;;9.18;3.67;;;;;;;-3.89;100.00;98473.47;2614379;28;20056;-90
2023/12/03 02:05:23;;;;;;;11.35;4.57;;;;;;;-3.66;100.00;98473.28;2614206;28;20052;-90
2023/12/03 02:06:38;;;;;;;10.30;4.07;;;;;;;-3.70;100.00;98474.91;2613900;28;20053;-90
2023/12/03 02:07:54;;;;;;;12.93;5.85;;;;;;;-3.70;100.00;98482.56;2613879;28;20041;-90
2023/12/03 02:09:10;;;;;;;10.10;4.25;;;;;;;-3.79;100.00;98476.28;2613520;28;20045;-90
2023/12/03 02:10:25;;;;;;;6.85;3.50;;;;;;;-3.83;100.00;98473.66;2613777;28;20041;-89
2023/12/03 02:11:41;;;;;;;7.93;4.22;;;;;;;-3.71;100.00;98480.81;2613550;28;20049;-89
2023/12/03 02:12:58;;;;;;;7.57;3.42;;;;;;;-3.99;100.00;98476.56;2613475;28;20072;-89
2023/12/03 02:14:14;;;;;;;6.75;4.05;;;;;;;-3.90;100.00;98473.41;2614248;28;20122;-89
2023/12/03 02:15:30;;;;;;;8.18;3.38;;;;;;;-3.69;100.00;98475.75;2613990;28;20045;-89
2023/12/03 02:16:47;;;;;;;6.15;3.45;;;;;;;-3.78;100.00;98480.59;2614259;28;20048;-89
2023/12/03 02:18:03;;;;;;;7.95;4.10;;;;;;;-3.79;100.00;98481.41;2614084;28;20049;-90
2023/12/03 02:19:18;;;;;;;6.45;3.10;;;;;;;-3.94;100.00;98475.00;2614140;28;20045;-89
2023/12/03 02:20:34;;;;;;;6.95;3.08;;;;;;;-3.75;100.00;98480.69;2614101;28;20476;-90
2023/12/03 02:21:49;;;;;;;8.55;4.15;;;;;;;-3.62;100.00;98480.25;2614113;28;20052;-89
2023/12/03 02:23:05;;;;;;;6.20;3.42;;;;;;;-3.72;100.00;98485.91;2614146;28;20041;-89
2023/12/03 02:24:21;;;;;;;6.85;3.33;;;;;;;-3.75;100.00;98480.69;2613265;28;20052;-89
2023/12/03 02:25:36;;;;;;;8.05;4.25;;;;;;;-3.53;100.00;98481.31;2613675;28;20523;-90
2023/12/03 02:26:51;;;;;;;7.75;3.72;;;;;;;-3.70;100.00;98477.47;2614075;28;20101;-90
2023/12/03 02:28:08;;;;;;;8.02;3.75;;;;;;;-3.77;100.00;98488.31;2614176;28;20488;-90
2023/12/03 02:29:23;;;;;;;6.88;3.58;;;;;;;-3.69;100.00;98493.66;2613241;28;20063;-89
2023/12/03 02:30:40;;;;;;;8.73;3.75;;;;;;;-3.67;100.00;98489.44;2606995;28;20041;-89
2023/12/03 02:31:56;;;;;;;7.55;4.05;;;;;;;-3.63;100.00;98483.63;2613670;28;20404;-89
2023/12/03 02:33:11;;;;;;;7.35;4.20;;;;;;;-3.63;100.00;98483.63;2614213;28;20052;-89
2023/12/03 02:34:27;;;;;;;8.85;4.13;;;;;;;-3.73;100.00;98479.91;2613822;28;20396;-89
2023/12/03 02:35:42;;;;;;;4.75;2.55;;;;;;;-3.78;100.00;98488.25;2613200;28;20420;-89
2023/12/03 02:36:58;;;;;;;7.15;3.75;;;;;;;-3.66;100.00;98488.63;2613529;28;20071;-90
2023/12/03 02:38:13;;;;;;;8.13;3.97;;;;;;;-3.48;100.00;98487.44;2613929;28;20048;-90
2023/12/03 02:39:29;;;;;;;8.50;4.00;;;;;;;-3.44;100.00;98479.03;2613284;28;20049;-89
2023/12/03 02:40:45;;;;;;;10.57;4.82;;;;;;;-3.29;100.00;98484.56;2613515;28;20115;-89
2023/12/03 02:42:00;;;;;;;12.05;4.78;;;;;;;-3.30;100.00;98487.09;2613787;28;20040;-89
2023/12/03 02:43:16;;;;;;;9.07;4.15;;;;;;;-3.39;100.00;98486.84;2613874;28;20045;-90
2023/12/03 02:44:32;;;;;;;8.95;4.95;;;;;;;-3.22;100.00;98484.72;2614273;28;20044;-89
2023/12/03 02:45:47;;;;;;;7.25;3.60;;;;;;;-3.54;100.00;98490.69;2614292;28;20546;-89
2023/12/03 02:47:03;;;;;;;9.35;4.78;;;;;;;-3.42;100.00;98488.50;2612786;28;20127;-90
2023/12/03 02:48:19;;;;;;;7.53;3.95;;;;;;;-3.34;100.00;98491.28;2612997;28;20049;-90
2023/12/03 02:49:34;;;;;;;7.32;3.90;;;;;;;-3.36;100.00;98490.34;2613721;28;20048;-89
2023/12/03 02:50:49;;;;;;;8.68;4.28;;;;;;;-3.22;100.00;98484.72;2613826;28;20045;-89
2023/12/03 02:52:05;;;;;;;7.82;4.45;;;;;;;-3.34;100.00;98496.38;2612978;28;20107;-89
2023/12/03 02:53:21;;;;;;;9.05;4.80;;;;;;;-3.12;100.00;98491.84;2613446;28;20496;-89
2023/12/03 02:54:38;;;;;;;8.63;4.63;;;;;;;-3.13;100.00;98485.00;2613544;28;20049;-89
2023/12/03 02:55:53;;;;;;;7.72;4.13;;;;;;;-3.18;100.00;98494.25;2613046;28;20096;-89
2023/12/03 02:57:09;;;;;;;9.15;4.45;;;;;;;-3.09;100.00;98494.50;2613301;28;20508;-89
2023/12/03 02:58:24;;;;;;;8.85;4.53;;;;;;;-3.31;100.00;98493.91;2613066;28;20467;-90
2023/12/03 02:59:40;;;;;;;9.48;4.55;;;;;;;-3.18;100.00;98492.53;2606619;28;20529;-89
2023/12/03 03:00:56;;;;;;;7.80;4.20;;;;;;;-3.16;100.00;98492.59;2613475;28;20051;-89
2023/12/03 03:02:11;;;;;;;8.88;4.18;;;;;;;-3.01;100.00;98494.69;2613689;28;20041;-89
2023/12/03 03:03:27;;;;;;;5.00;2.50;;;;;;;-3.27;100.00;98495.72;2612963;28;20120;-89
2023/12/03 03:04:42;;;;;;;4.80;2.92;;;;;;;-3.46;100.00;98498.59;2613136;28;20045;-89
2023/12/03 03:05:58;;;;;;;8.48;4.10;;;;;;;-3.46;100.00;98504.56;2613152;28;20072;-89
2023/12/03 03:07:14;;;;;;;6.05;3.60;;;;;;;-3.21;100.00;98501.81;2613107;28;20048;-90
2023/12/03 03:08:29;;;;;;;5.28;3.22;;;;;;;-3.36;100.00;98505.69;2613789;28;20045;-89
2023/12/03 03:09:45;;;;;;;2.22;1.85;;;;;;;-3.55;100.00;98505.16;2612688;28;20054;-89
2023/12/03 03:11:01;;;;;;;8.88;3.20;;;;;;;-3.12;100.00;98509.78;2617090;28;20403;-89
2023/12/03 03:12:17;;;;;;;6.72;3.80;;;;;;;-2.92;100.00;98510.31;2619418;28;20048;-89
2023/12/03 03:13:32;;;;;;;6.70;3.53;;;;;;;-3.11;100.00;98511.50;2613570;28;20052;-89
2023/12/03 03:14:48;;;;;;;7.18;3.40;;;;;;;-3.10;100.00;98517.53;2613367;28;20049;-89
2023/12/03 03:16:04;;;;;;;7.40;3.63;;;;;;;-3.09;100.00;98507.28;2613625;28;20481;-89
2023/12/03 03:17:19;;;;;;;8.30;4.32;;;;;;;-3.09;100.00;98514.97;2613741;28;20049;-89
2023/12/03 03:18:35;;;;;;;9.57;3.92;;;;;;;-3.03;100.00;98517.72;2612803;28;20048;-89
2023/12/03 03:19:51;;;;;;;4.28;2.20;;;;;;;-3.28;100.00;98526.44;2613014;28;20106;-89
2023/12/03 03:21:06;;;;;;;6.07;3.22;;;;;;;-3.39;100.00;98520.97;2613653;28;20072;-89
2023/12/03 03:22:22;;;;;;;3.20;2.53;;;;;;;-3.52;100.00;98519.75;2612916;28;20040;-88
2023/12/03 03:23:38;;;;;;;4.05;2.58;;;;;;;-3.44;100.00;98515.72;2613124;28;20078;-87
2023/12/03 03:24:53;;;;;;;8.23;3.90;;;;;;;-3.34;100.00;98523.66;2613469;28;20075;-88
2023/12/03 03:26:09;;;;;;;1.30;1.20;;;;;;;-3.68;100.00;98520.97;2614418;28;20128;-89
2023/12/03 03:27:24;;;;;;;5.38;2.88;;;;;;;-3.75;100.00;98519.06;2613902;28;20405;-89
2023/12/03 03:28:40;;;;;;;2.83;1.83;;;;;;;-3.78;100.00;98524.06;2613516;28;20106;-88
2023/12/03 03:29:56;;;;;;;2.00;1.80;;;;;;;-3.63;100.00;98528.81;2613461;28;20061;-89
2023/12/03 03:31:11;;;;;;;3.40;2.30;;;;;;;-3.69;100.00;98537.16;2612702;28;20056;-89
2023/12/03 03:32:27;;;;;;;3.53;1.98;;;;;;;-3.61;100.00;98534.81;2612951;28;20044;-89
2023/12/03 03:33:42;;;;;;;4.65;2.92;;;;;;;-3.77;100.00;98536.03;2613386;28;20054;-88
2023/12/03 03:34:58;;;;;;;5.13;2.88;;;;;;;-3.77;100.00;98541.16;2613121;28;20048;-89
2023/12/03 03:36:13;;;;;;;5.43;2.67;;;;;;;-3.75;100.00;98544.66;2613292;28;20045;-88
2023/12/03 03:37:29;;;;;;;2.47;1.17;;;;;;;-3.64;100.00;98544.97;2612656;28;20041;-89
2023/12/03 03:38:45;;;;;;;3.65;1.95;;;;;;;-3.75;100.00;98548.06;2606531;28;20565;-89
2023/12/03 03:40:00;;;;;;;2.60;1.88;;;;;;;-3.52;100.00;98547.03;2606287;28;20045;-89
2023/12/03 03:41:16;;;;;;;4.57;2.50;;;;;;;-3.57;100.00;98549.44;2606406;28;20048;-88
2023/12/03 03:42:31;;;;;;;6.68;3.75;;;;;;;-3.67;100.00;98552.56;2612893;28;20041;-89
2023/12/03 03:43:47;;;;;;;3.60;2.05;;;;;;;-3.55;100.00;98550.38;2613418;28;20052;-89
2023/12/03 03:45:03;;;;;;;2.35;1.70;;;;;;;-3.81;100.00;98550.44;2613243;28;20067;-89
2023/12/03 03:46:19;;;;;;;4.07;2.10;;;;;;;-3.58;100.00;98545.16;2612572;28;20515;-89
2023/12/03 03:47:36;;;;;;;3.20;1.98;;;;;;;-3.67;100.00;98545.75;2612923;28;20098;-89
2023/12/03 03:48:51;;;;;;;6.70;3.42;;;;;;;-3.60;100.00;98554.47;2613331;28;20045;-89
2023/12/03 03:50:07;;;;;;;1.80;1.15;;;;;;;-3.78;100.00;98544.53;2613417;28;20049;-89
2023/12/03 03:51:23;;;;;;;4.45;2.13;;;;;;;-3.72;100.00;98549.88;2613199;28;20070;-89
2023/12/03 03:52:39;;;;;;;2.58;1.60;;;;;;;-3.75;100.00;98552.34;2612554;28;20048;-89
2023/12/03 03:53:55;;;;;;;4.97;3.05;;;;;;;-3.64;100.00;98547.53;2616626;28;20038;-88
2023/12/03 03:55:10;;;;;;;2.72;2.13;;;;;;;-3.97;100.00;98560.19;2612147;28;20455;-89
2023/12/03 03:56:26;;;;;;;6.05;3.53;;;;;;;-4.01;100.00;98553.22;2616664;28;20046;-89
2023/12/03 03:57:42;;;;;;;5.93;2.55;;;;;;;-3.90;100.00;98557.81;2618965;28;20557;-89
2023/12/03 03:58:57;;;;;;;5.13;2.72;;;;;;;-4.00;100.00;98561.78;2613041;28;20052;-88
2023/12/03 04:00:13;;;;;;;5.75;3.72;;;;;;;-4.01;100.00;98558.34;2613367;28;20076;-88
2023/12/03 04:01:30;;;;;;;3.92;2.38;;;;;;;-4.02;100.00;98560.88;2613125;28;20041;-89
2023/12/03 04:02:46;;;;;;;5.28;3.03;;;;;;;-3.88;100.00;98566.41;2613275;28;20565;-89
2023/12/03 04:04:02;;;;;;;2.90;2.33;;;;;;;-3.92;100.00;98562.03;2612986;28;20040;-88
2023/12/03 04:05:18;;;;;;;3.00;1.95;;;;;;;-3.81;100.00;98563.25;2612483;28;20037;-89
2023/12/03 04:06:38;;;;;;;6.68;3.25;;;;;;;-4.04;100.00;98565.94;2613332;28;20506;-89
2023/12/03 04:07:53;;;;;;;3.00;2.25;;;;;;;-4.10;100.00;98565.75;2613062;28;20061;-89
2023/12/03 04:09:09;;;;;;;4.50;2.55;;;;;;;-4.12;100.00;98564.78;2612885;28;20393;-89
2023/12/03 04:10:24;;;;;;;3.47;2.13;;;;;;;-4.14;100.00;98569.00;2612810;28;20490;-89
2023/12/03 04:11:41;;;;;;;4.63;2.17;;;;;;;-4.19;100.00;98573.09;2612898;28;20041;-89
2023/12/03 04:12:57;;;;;;;8.35;3.38;;;;;;;-4.14;100.00;98567.31;2612525;28;20045;-89
2023/12/03 04:14:17;;;;;;;2.97;2.10;;;;;;;-4.15;100.00;98573.25;2612798;28;20041;-89
2023/12/03 04:15:32;;;;;;;3.00;1.85;;;;;;;-4.03;100.00;98575.34;2613089;28;20056;-89
2023/12/03 04:16:48;;;;;;;5.43;2.95;;;;;;;-4.15;100.00;98580.94;2613173;28;20480;-89
2023/12/03 04:18:03;;;;;;;4.25;1.83;;;;;;;-4.12;100.00;98583.56;2613124;28;20045;-89
2023/12/03 04:19:19;;;;;;;2.80;1.92;;;;;;;-4.07;100.00;98583.72;2613351;28;20049;-88
2023/12/03 04:20:34;;;;;;;2.38;1.88;;;;;;;-3.94;100.00;98587.53;2612353;28;20045;-88
2023/12/03 04:21:50;;;;;;;5.82;2.33;;;;;;;-4.08;100.00;98588.78;2612875;28;20558;-89
2023/12/03 04:23:06;;;;;;;4.35;2.38;;;;;;;-3.95;100.00;98593.47;2612967;28;20124;-89
2023/12/03 04:24:21;;;;;;;2.63;1.63;;;;;;;-3.97;100.00;98592.56;2613266;28;20103;-89
2023/12/03 04:25:37;;;;;;;2.50;1.88;;;;;;;-3.99;100.00;98592.50;2612961;28;20045;-89
2023/12/03 04:26:52;;;;;;;3.40;1.90;;;;;;;-4.12;100.00;98600.59;2612401;28;20052;-89
2023/12/03 04:28:09;;;;;;;6.35;3.13;;;;;;;-3.91;100.00;98599.56;2612693;28;20052;-89
2023/12/03 04:29:24;;;;;;;4.75;2.72;;;;;;;-3.83;100.00;98598.16;2612859;28;20048;-89
2023/12/03 04:30:40;;;;;;;2.85;1.33;;;;;;;-3.97;100.00;98601.13;2612885;28;20045;-88
2023/12/03 04:31:55;;;;;;;9.30;3.83;;;;;;;-3.83;100.00;98601.56;2612910;28;20087;-89
2023/12/03 04:33:11;;;;;;;2.47;1.95;;;;;;;-4.05;100.00;98602.56;2612944;28;20044;-89
2023/12/03 04:34:27;;;;;;;5.18;2.17;;;;;;;-3.98;100.00;98603.63;2612717;28;20036;-89
2023/12/03 04:35:42;;;;;;;5.72;2.85;;;;;;;-3.94;100.00;98602.03;2612915;28;20047;-89
2023/12/03 04:36:58;;;;;;;6.10;2.60;;;;;;;-3.77;100.00;98610.22;2612825;28;20041;-89
2023/12/03 04:38:13;;;;;;;5.53;2.63;;;;;;;-3.73;100.00;98606.97;2612907;28;20045;-90
2023/12/03 04:39:29;;;;;;;6.80;3.50;;;;;;;-3.57;100.00;98610.88;2612871;28;20056;-89
2023/12/03 04:40:45;;;;;;;5.53;2.95;;;;;;;-3.69;100.00;98617.38;2613128;28;20126;-89
2023/12/03 04:42:01;;;;;;;6.35;2.90;;;;;;;-3.87;100.00;98609.97;2612286;28;20087;-89
2023/12/03 04:43:16;;;;;;;5.90;2.78;;;;;;;-3.84;100.00;98619.44;2612591;28;20045;-89
2023/12/03 04:44:32;;;;;;;7.72;3.28;;;;;;;-3.70;100.00;98614.75;2612833;28;20045;-90
2023/12/03 04:45:47;;;;;;;5.05;2.95;;;;;;;-3.68;100.00;98615.66;2613210;28;20037;-89
2023/12/03 04:47:03;;;;;;;5.78;3.10;;;;;;;-3.73;100.00;98617.22;2612575;28;20037;-89
2023/12/03 04:48:19;;;;;;;6.90;3.67;;;;;;;-3.71;100.00;98613.00;2612188;28;20048;-89
2023/12/03 04:49:34;;;;;;;6.40;3.72;;;;;;;-3.64;100.00;98616.63;2612406;28;20416;-89
2023/12/03 04:50:50;;;;;;;7.10;3.50;;;;;;;-3.64;100.00;98614.91;2612963;28;20041;-89
2023/12/03 04:52:05;;;;;;;8.27;4.13;;;;;;;-3.77;100.00;98617.91;2612920;28;20049;-89
2023/12/03 04:53:21;;;;;;;7.93;3.80;;;;;;;-3.66;100.00;98619.13;2612971;28;20044;-89
2023/12/03 04:54:37;;;;;;;7.75;4.38;;;;;;;-3.58;100.00;98614.25;2612150;28;20103;-89
2023/12/03 04:55:52;;;;;;;9.02;4.05;;;;;;;-3.59;100.00;98618.50;2612510;28;20041;-88
2023/12/03 04:57:08;;;;;;;8.43;3.63;;;;;;;-3.87;100.00;98616.75;2612927;28;20048;-88
2023/12/03 04:58:25;;;;;;;9.43;4.00;;;;;;;-3.64;100.00;98625.16;2612169;28;20400;-88
2023/12/03 04:59:40;;;;;;;7.80;4.20;;;;;;;-3.61;100.00;98622.72;2612452;28;20117;-88
2023/12/03 05:00:56;;;;;;;3.70;2.03;;;;;;;-3.85;100.00;98621.09;2612952;28;20077;-88
2023/12/03 05:02:12;;;;;;;7.57;3.20;;;;;;;-3.77;100.00;98618.78;2612286;28;20044;-88
2023/12/03 05:03:27;;;;;;;7.20;3.30;;;;;;;-3.68;100.00;98631.00;2612506;28;20053;-88
2023/12/03 05:04:43;;;;;;;5.05;2.47;;;;;;;-4.00;100.00;98623.16;2612812;28;20048;-90
2023/12/03 05:05:58;;;;;;;5.88;3.08;;;;;;;-4.22;100.00;98626.69;2612925;28;20407;-89
2023/12/03 05:07:14;;;;;;;8.15;3.90;;;;;;;-4.13;100.00;98629.53;2613947;28;20484;-89
2023/12/03 05:08:30;;;;;;;10.82;4.75;;;;;;;-3.74;100.00;98618.88;2615106;28;20045;-89
2023/12/03 05:09:45;;;;;;;10.40;4.63;;;;;;;-3.70;100.00;98627.53;2614871;28;20484;-88
2023/12/03 05:11:04;;;;;;;9.13;3.78;;;;;;;-4.11;100.00;98627.94;2615037;28;20052;-91
2023/12/03 05:12:20;;;;;;;9.82;4.20;;;;;;;-4.01;100.00;98629.09;2624526;28;20048;-90
2023/12/03 05:13:36;;;;;;;11.00;4.75;;;;;;;-4.02;100.00;98625.66;2620915;28;20411;-90
2023/12/03 05:14:51;;;;;;;10.80;4.28;;;;;;;-3.74;100.00;98621.44;2614591;28;20411;-90
2023/12/03 05:16:07;;;;;;;9.90;4.38;;;;;;;-3.69;100.00;98624.16;2615856;28;20052;-91
2023/12/03 05:17:23;;;;;;;8.90;4.43;;;;;;;-3.67;100.00;98627.63;2617492;28;20033;-90
2023/12/03 05:18:38;;;;;;;8.68;4.40;;;;;;;-3.88;100.00;98628.69;2615699;28;20048;-90
2023/12/03 05:19:54;;;;;;;6.60;3.75;;;;;;;-3.70;100.00;98640.34;2614876;28;20060;-90
2023/12/03 05:21:10;;;;;;;5.90;3.67;;;;;;;-3.72;100.00;98634.31;2614926;28;20041;-90
2023/12/03 05:22:25;;;;;;;7.72;3.58;;;;;;;-3.84;100.00;98633.06;2614819;28;20045;-89
2023/12/03 05:23:41;;;;;;;8.98;4.03;;;;;;;-3.79;100.00;98637.47;2614988;28;20474;-90
2023/12/03 05:24:56;;;;;;;6.80;3.30;;;;;;;-3.89;100.00;98639.75;2624324;28;20044;-89
2023/12/03 05:26:12;;;;;;;8.38;3.97;;;;;;;-3.69;100.00;98642.94;2620391;28;20102;-90
2023/12/03 05:27:28;;;;;;;6.03;3.75;;;;;;;-3.68;100.00;98638.69;2613529;28;20049;-90
2023/12/03 05:28:44;;;;;;;6.38;3.38;;;;;;;-3.66;100.00;98641.31;2607692;28;20045;-90
2023/12/03 05:30:01;;;;;;;7.88;3.78;;;;;;;-3.73;100.00;98635.97;2614323;28;20090;-90
2023/12/03 05:31:17;;;;;;;7.82;3.55;;;;;;;-3.93;100.00;98642.16;2614632;28;20128;-90
2023/12/03 05:32:33;;;;;;;7.38;4.15;;;;;;;-3.93;100.00;98642.16;2614781;28;20052;-90
2023/12/03 05:33:48;;;;;;;5.18;3.25;;;;;;;-3.87;100.00;98635.53;2614365;28;20500;-90
2023/12/03 05:35:04;;;;;;;8.25;3.75;;;;;;;-3.90;100.00;98630.34;2614409;28;20496;-90
2023/12/03 05:36:22;;;;;;;7.82;3.83;;;;;;;-4.00;100.00;98635.97;2614679;28;20055;-90
2023/12/03 05:37:38;;;;;;;6.40;3.05;;;;;;;-4.22;100.00;98632.66;2614763;28;20091;-90
2023/12/03 05:38:54;;;;;;;7.80;3.67;;;;;;;-3.86;100.00;98628.72;2614648;28;20049;-90
2023/12/03 05:40:10;;;;;;;7.70;3.70;;;;;;;-4.07;100.00;98634.88;2613654;28;20411;-89
2023/12/03 05:41:25;;;;;;;6.40;3.47;;;;;;;-4.01;100.00;98637.63;2607646;28;20045;-89
2023/12/03 05:42:41;;;;;;;6.90;4.20;;;;;;;-4.18;100.00;98631.97;2607809;28;20045;-89
2023/12/03 05:43:57;;;;;;;8.80;3.95;;;;;;;-4.08;100.00;98638.25;2614129;28;20106;-88
2023/12/03 05:45:12;;;;;;;8.50;4.10;;;;;;;-4.03;100.00;98643.53;2613818;28;20063;-89
2023/12/03 05:46:28;;;;;;;7.60;3.97;;;;;;;-3.95;100.00;98636.97;2614161;28;20069;-89
2023/12/03 05:47:43;;;;;;;8.52;3.97;;;;;;;-3.89;100.00;98639.75;2613952;28;20045;-89
2023/12/03 05:48:59;;;;;;;7.30;3.60;;;;;;;-3.97;100.00;98643.72;2614088;28;20045;-89
2023/12/03 05:50:14;;;;;;;6.95;4.13;;;;;;;-4.02;100.00;98650.38;2613686;28;20041;-90
2023/12/03 05:51:30;;;;;;;6.40;3.53;;;;;;;-4.05;100.00;98647.69;2613686;28;20045;-90
2023/12/03 05:52:46;;;;;;;6.72;3.63;;;;;;;-3.94;100.00;98650.63;2614633;28;20059;-89